sensor_id;sensor_type;location;lat;lon;timestamp;pressure;altitude;pressure_sealevel;temperature;humidity
45941;BME280;31858;46.008;8.978;2023-06-19T00:07:46;94609.59;;;19.63;100.00
45941;BME280;31858;46.008;8.978;2023-06-19T00:17:48;94607.81;;;19.72;100.00
45941;BME280;31858;46.008;8.978;2023-06-19T00:27:51;94600.94;;;19.55;100.00
45941;BME280;31858;46.008;8.978;2023-06-19T00:37:52;94602.25;;;19.34;100.00
45941;BME280;31858;46.008;8.978;2023-06-19T00:47:56;94617.63;;;19.21;100.00
45941;BME280;31858;46.008;8.978;2023-06-19T00:57:59;94611.97;;;19.32;100.00
45941;BME280;31858;46.008;8.978;2023-06-19T01:08:08;94623.13;;;19.17;100.00
45941;BME280;31858;46.008;8.978;2023-06-19T01:18:12;94632.00;;;19.02;100.00
45941;BME280;31858;46.008;8.978;2023-06-19T01:28:15;94635.78;;;19.04;100.00
45941;BME280;31858;46.008;8.978;2023-06-19T01:38:18;94645.41;;;19.05;100.00
45941;BME280;31858;46.008;8.978;2023-06-19T01:48:22;94647.53;;;18.98;100.00
45941;BME280;31858;46.008;8.978;2023-06-19T01:58:24;94658.50;;;18.90;100.00
45941;BME280;31858;46.008;8.978;2023-06-19T02:08:27;94642.97;;;18.95;100.00
45941;BME280;31858;46.008;8.978;2023-06-19T02:18:29;94638.41;;;18.75;100.00
45941;BME280;31858;46.008;8.978;2023-06-19T02:28:32;94642.63;;;18.76;100.00
45941;BME280;31858;46.008;8.978;2023-06-19T02:38:33;94645.66;;;18.78;100.00
45941;BME280;31858;46.008;8.978;2023-06-19T02:48:37;94644.22;;;18.74;100.00
45941;BME280;31858;46.008;8.978;2023-06-19T02:58:38;94643.75;;;18.59;100.00
45941;BME280;31858;46.008;8.978;2023-06-19T03:08:41;94643.00;;;18.58;100.00
45941;BME280;31858;46.008;8.978;2023-06-19T03:18:44;94650.22;;;18.45;100.00
45941;BME280;31858;46.008;8.978;2023-06-19T03:28:47;94647.03;;;18.50;100.00
45941;BME280;31858;46.008;8.978;2023-06-19T03:38:48;94653.75;;;18.42;100.00
45941;BME280;31858;46.008;8.978;2023-06-19T03:48:51;94653.06;;;18.38;100.00
45941;BME280;31858;46.008;8.978;2023-06-19T03:58:53;94644.13;;;18.41;100.00
45941;BME280;31858;46.008;8.978;2023-06-19T04:08:56;94651.81;;;18.43;100.00
45941;BME280;31858;46.008;8.978;2023-06-19T04:18:58;94641.03;;;18.43;100.00
45941;BME280;31858;46.008;8.978;2023-06-19T04:29:00;94641.38;;;18.45;100.00
45941;BME280;31858;46.008;8.978;2023-06-19T04:39:02;94647.53;;;18.45;100.00
45941;BME280;31858;46.008;8.978;2023-06-19T04:49:05;94646.94;;;18.54;100.00
45941;BME280;31858;46.008;8.978;2023-06-19T04:59:07;94639.78;;;18.47;100.00
45941;BME280;31858;46.008;8.978;2023-06-19T05:09:10;94644.16;;;18.57;100.00
45941;BME280;31858;46.008;8.978;2023-06-19T05:19:11;94643.50;;;18.53;100.00
45941;BME280;31858;46.008;8.978;2023-06-19T05:29:14;94652.25;;;18.57;100.00
45941;BME280;31858;46.008;8.978;2023-06-19T05:39:16;94637.53;;;18.62;100.00
45941;BME280;31858;46.008;8.978;2023-06-19T05:49:20;94634.34;;;18.67;100.00
45941;BME280;31858;46.008;8.978;2023-06-19T05:59:22;94631.91;;;18.73;100.00
45941;BME280;31858;46.008;8.978;2023-06-19T06:09:25;94634.53;;;19.09;100.00
45941;BME280;31858;46.008;8.978;2023-06-19T06:19:27;94641.78;;;19.12;100.00
45941;BME280;31858;46.008;8.978;2023-06-19T06:29:30;94642.63;;;18.93;100.00
45941;BME280;31858;46.008;8.978;2023-06-19T06:39:31;94634.44;;;18.96;100.00
45941;BME280;31858;46.008;8.978;2023-06-19T06:49:34;94628.38;;;19.08;100.00
45941;BME280;31858;46.008;8.978;2023-06-19T06:59:37;94628.44;;;19.05;100.00
45941;BME280;31858;46.008;8.978;2023-06-19T07:09:40;94615.97;;;19.11;100.00
45941;BME280;31858;46.008;8.978;2023-06-19T07:19:42;94622.97;;;18.92;100.00
45941;BME280;31858;46.008;8.978;2023-06-19T07:29:45;94631.81;;;19.09;100.00
45941;BME280;31858;46.008;8.978;2023-06-19T07:39:48;94637.56;;;18.95;100.00
45941;BME280;31858;46.008;8.978;2023-06-19T07:49:51;94640.59;;;18.97;100.00
45941;BME280;31858;46.008;8.978;2023-06-19T07:59:54;94647.03;;;19.03;100.00
45941;BME280;31858;46.008;8.978;2023-06-19T08:09:57;94655.44;;;19.21;100.00
45941;BME280;31858;46.008;8.978;2023-06-19T08:19:59;94655.34;;;19.41;100.00
45941;BME280;31858;46.008;8.978;2023-06-19T08:30:02;94663.19;;;19.51;100.00
45941;BME280;31858;46.008;8.978;2023-06-19T08:40:05;94663.06;;;19.71;100.00
45941;BME280;31858;46.008;8.978;2023-06-19T08:50:11;94662.06;;;19.94;100.00
45941;BME280;31858;46.008;8.978;2023-06-19T09:00:23;94650.84;;;20.08;100.00
45941;BME280;31858;46.008;8.978;2023-06-19T09:10:26;94647.00;;;20.35;100.00
45941;BME280;31858;46.008;8.978;2023-06-19T09:20:29;94653.97;;;20.48;100.00
45941;BME280;31858;46.008;8.978;2023-06-19T09:30:32;94657.78;;;20.64;100.00
45941;BME280;31858;46.008;8.978;2023-06-19T09:40:33;94658.19;;;20.88;100.00
45941;BME280;31858;46.008;8.978;2023-06-19T09:50:37;94660.00;;;21.16;100.00
45941;BME280;31858;46.008;8.978;2023-06-19T10:00:40;94655.53;;;21.47;100.00
45941;BME280;31858;46.008;8.978;2023-06-19T10:10:47;94655.13;;;21.71;100.00
45941;BME280;31858;46.008;8.978;2023-06-19T10:20:50;94638.09;;;21.92;100.00
45941;BME280;31858;46.008;8.978;2023-06-19T10:30:54;94645.22;;;22.21;100.00
45941;BME280;31858;46.008;8.978;2023-06-19T10:40:55;94640.56;;;22.52;100.00
45941;BME280;31858;46.008;8.978;2023-06-19T10:50:59;94630.16;;;22.82;100.00
45941;BME280;31858;46.008;8.978;2023-06-19T11:01:01;94630.06;;;22.94;100.00
45941;BME280;31858;46.008;8.978;2023-06-19T11:11:04;94622.84;;;23.09;100.00
45941;BME280;31858;46.008;8.978;2023-06-19T11:21:06;94617.16;;;23.35;100.00
45941;BME280;31858;46.008;8.978;2023-06-19T11:31:09;94616.88;;;23.60;100.00
45941;BME280;31858;46.008;8.978;2023-06-19T11:41:10;94604.16;;;23.85;100.00
45941;BME280;31858;46.008;8.978;2023-06-19T11:51:13;94609.00;;;23.99;100.00
45941;BME280;31858;46.008;8.978;2023-06-19T12:01:15;94607.00;;;24.08;100.00
45941;BME280;31858;46.008;8.978;2023-06-19T12:11:18;94608.50;;;24.19;100.00
45941;BME280;31858;46.008;8.978;2023-06-19T12:21:20;94596.84;;;24.27;100.00
45941;BME280;31858;46.008;8.978;2023-06-19T12:31:22;94587.25;;;24.50;100.00
45941;BME280;31858;46.008;8.978;2023-06-19T12:41:25;94566.66;;;24.58;100.00
45941;BME280;31858;46.008;8.978;2023-06-19T12:51:28;94572.22;;;24.64;100.00
45941;BME280;31858;46.008;8.978;2023-06-19T13:01:29;94569.84;;;24.81;100.00
45941;BME280;31858;46.008;8.978;2023-06-19T13:11:32;94576.50;;;25.13;100.00
45941;BME280;31858;46.008;8.978;2023-06-19T13:21:34;94576.78;;;25.15;100.00
45941;BME280;31858;46.008;8.978;2023-06-19T13:31:38;94580.88;;;24.53;100.00
45941;BME280;31858;46.008;8.978;2023-06-19T13:41:39;94568.38;;;24.70;100.00
45941;BME280;31858;46.008;8.978;2023-06-19T13:51:42;94589.66;;;25.14;100.00
45941;BME280;31858;46.008;8.978;2023-06-19T14:01:44;94596.16;;;25.41;100.00
45941;BME280;31858;46.008;8.978;2023-06-19T14:11:47;94586.63;;;25.36;100.00
45941;BME280;31858;46.008;8.978;2023-06-19T14:21:49;94583.47;;;25.14;100.00
45941;BME280;31858;46.008;8.978;2023-06-19T14:31:52;94602.56;;;24.71;100.00
45941;BME280;31858;46.008;8.978;2023-06-19T14:41:53;94607.00;;;24.27;100.00
45941;BME280;31858;46.008;8.978;2023-06-19T14:51:56;94607.91;;;24.05;100.00
45941;BME280;31858;46.008;8.978;2023-06-19T15:01:58;94623.50;;;23.87;100.00
45941;BME280;31858;46.008;8.978;2023-06-19T15:12:01;94598.59;;;23.70;100.00
45941;BME280;31858;46.008;8.978;2023-06-19T15:22:03;94606.13;;;23.66;100.00
45941;BME280;31858;46.008;8.978;2023-06-19T15:32:06;94602.34;;;23.72;100.00
45941;BME280;31858;46.008;8.978;2023-06-19T15:42:08;94547.03;;;23.85;100.00
45941;BME280;31858;46.008;8.978;2023-06-19T15:52:11;94605.06;;;23.91;100.00
45941;BME280;31858;46.008;8.978;2023-06-19T16:02:13;94613.16;;;24.46;100.00
45941;BME280;31858;46.008;8.978;2023-06-19T16:12:16;94617.81;;;24.54;100.00
45941;BME280;31858;46.008;8.978;2023-06-19T16:22:17;94606.78;;;24.82;100.00
45941;BME280;31858;46.008;8.978;2023-06-19T16:32:20;94605.50;;;24.92;100.00
45941;BME280;31858;46.008;8.978;2023-06-19T16:42:22;94609.38;;;25.09;100.00
45941;BME280;31858;46.008;8.978;2023-06-19T16:52:27;94604.22;;;25.11;100.00
45941;BME280;31858;46.008;8.978;2023-06-19T17:02:28;94625.41;;;25.16;100.00
45941;BME280;31858;46.008;8.978;2023-06-19T17:12:31;94635.00;;;25.02;100.00
45941;BME280;31858;46.008;8.978;2023-06-19T17:22:33;94637.16;;;24.89;100.00
45941;BME280;31858;46.008;8.978;2023-06-19T17:32:36;94644.50;;;24.74;100.00
45941;BME280;31858;46.008;8.978;2023-06-19T17:42:38;94642.91;;;24.58;100.00
45941;BME280;31858;46.008;8.978;2023-06-19T17:52:41;94634.91;;;24.55;100.00
45941;BME280;31858;46.008;8.978;2023-06-19T18:02:43;94631.59;;;24.51;100.00
45941;BME280;31858;46.008;8.978;2023-06-19T18:12:47;94627.88;;;24.30;100.00
45941;BME280;31858;46.008;8.978;2023-06-19T18:22:48;94613.22;;;24.09;100.00
45941;BME280;31858;46.008;8.978;2023-06-19T18:32:51;94604.56;;;24.20;100.00
45941;BME280;31858;46.008;8.978;2023-06-19T18:42:53;94614.91;;;23.88;100.00
45941;BME280;31858;46.008;8.978;2023-06-19T18:52:56;94635.41;;;23.43;100.00
45941;BME280;31858;46.008;8.978;2023-06-19T19:02:57;94634.19;;;23.17;100.00
45941;BME280;31858;46.008;8.978;2023-06-19T19:13:01;94625.72;;;23.15;100.00
45941;BME280;31858;46.008;8.978;2023-06-19T19:23:02;94604.56;;;23.01;100.00
45941;BME280;31858;46.008;8.978;2023-06-19T19:33:05;94601.78;;;22.83;100.00
45941;BME280;31858;46.008;8.978;2023-06-19T19:43:07;94608.31;;;22.54;100.00
45941;BME280;31858;46.008;8.978;2023-06-19T19:53:10;94621.66;;;22.39;100.00
45941;BME280;31858;46.008;8.978;2023-06-19T20:03:11;94635.50;;;22.10;100.00
45941;BME280;31858;46.008;8.978;2023-06-19T20:13:14;94648.81;;;22.39;100.00
45941;BME280;31858;46.008;8.978;2023-06-19T20:23:16;94679.31;;;22.22;100.00
45941;BME280;31858;46.008;8.978;2023-06-19T20:33:19;94669.25;;;22.31;100.00
45941;BME280;31858;46.008;8.978;2023-06-19T20:43:21;94669.72;;;22.30;100.00
45941;BME280;31858;46.008;8.978;2023-06-19T20:53:24;94675.41;;;22.23;100.00
45941;BME280;31858;46.008;8.978;2023-06-19T21:03:26;94670.22;;;22.16;100.00
45941;BME280;31858;46.008;8.978;2023-06-19T21:13:31;94688.69;;;21.86;100.00
45941;BME280;31858;46.008;8.978;2023-06-19T21:23:33;94677.28;;;21.91;100.00
45941;BME280;31858;46.008;8.978;2023-06-19T21:33:36;94684.44;;;21.63;100.00
45941;BME280;31858;46.008;8.978;2023-06-19T21:43:37;94677.06;;;21.64;100.00
45941;BME280;31858;46.008;8.978;2023-06-19T22:03:42;94689.97;;;21.60;100.00
45941;BME280;31858;46.008;8.978;2023-06-19T22:13:45;94684.88;;;21.62;100.00
45941;BME280;31858;46.008;8.978;2023-06-19T22:23:46;94702.13;;;21.55;100.00
45941;BME280;31858;46.008;8.978;2023-06-19T22:33:49;94702.88;;;21.56;100.00
45941;BME280;31858;46.008;8.978;2023-06-19T22:43:51;94698.34;;;21.53;100.00
45941;BME280;31858;46.008;8.978;2023-06-19T22:53:54;94707.56;;;21.42;100.00
45941;BME280;31858;46.008;8.978;2023-06-19T23:03:56;94744.31;;;21.18;100.00
45941;BME280;31858;46.008;8.978;2023-06-19T23:13:59;94701.31;;;20.95;100.00
45941;BME280;31858;46.008;8.978;2023-06-19T23:24:00;94699.91;;;20.90;100.00
45941;BME280;31858;46.008;8.978;2023-06-19T23:34:03;94722.31;;;21.03;100.00
45941;BME280;31858;46.008;8.978;2023-06-19T23:44:05;94739.13;;;21.11;100.00
45941;BME280;31858;46.008;8.978;2023-06-19T23:54:08;94725.34;;;21.18;100.00
